AQO weather

Llano Municipal Airport
Llano, Texas, United States

Public forecast

Using degrees Fahrenheit for public forecast. Weather courtesy of forecast.io.

METAR (pilot weather report)

Retrieved 2019/09/19 20:35 UTC (0 seconds ago):

KAQO 192035Z AUTO 16007G17KT 10SM SCT070 SCT120 32/20 A2986 RMK AO2

TAF (pilot weather forecast)

Closest forecast is Curtis Field, 41.5 nm (76.9 km) NW. Retrieved 2019/09/19 18:22 UTC (2 hours ago):

TAF KBBD 191720Z 1918/2018 08006KT P6SM VCSH SCT070 FM200000 10006KT P6SM FEW070 BKN250 FM200800 14006KT P6SM BKN025 FM201500 16011KT P6SM SCT035 SCT080